createdAt,value
2018-12-02T00:00:56.760Z,2.10
2018-12-02T00:03:25.861Z,2.30
2018-12-02T00:05:54.916Z,1.97
2018-12-02T00:08:23.959Z,1.87
2018-12-02T00:10:52.656Z,1.67
2018-12-02T00:13:21.751Z,1.90
2018-12-02T00:15:51.383Z,1.67
2018-12-02T00:18:20.407Z,1.53
2018-12-02T00:20:49.214Z,1.67
2018-12-02T00:23:18.222Z,1.50
2018-12-02T00:25:47.576Z,1.50
2018-12-02T00:28:16.565Z,1.90
2018-12-02T00:30:45.358Z,2.00
2018-12-02T00:33:14.754Z,2.07
2018-12-02T00:35:43.838Z,2.40
2018-12-02T00:38:12.798Z,2.30
2018-12-02T00:40:41.873Z,2.70
2018-12-02T00:43:10.721Z,2.57
2018-12-02T00:45:39.607Z,2.63
2018-12-02T00:48:09.319Z,2.80
2018-12-02T00:50:38.607Z,2.80
2018-12-02T00:53:09.190Z,2.37
2018-12-02T00:55:42.597Z,2.60
2018-12-02T00:58:11.758Z,2.60
2018-12-02T01:00:40.878Z,2.70
2018-12-02T01:03:10.623Z,2.50
2018-12-02T01:05:40.388Z,2.37
2018-12-02T01:08:09.743Z,2.37
2018-12-02T01:10:38.652Z,2.90
2018-12-02T01:13:09.277Z,3.30
2018-12-02T01:15:38.704Z,3.00
2018-12-02T01:18:08.257Z,3.37
2018-12-02T01:20:37.701Z,3.50
2018-12-02T01:23:07.169Z,4.03
2018-12-02T01:25:36.839Z,3.80
2018-12-02T01:28:05.865Z,3.70
2018-12-02T01:30:34.788Z,3.97
2018-12-02T01:33:03.545Z,4.20
2018-12-02T01:35:32.357Z,3.43
2018-12-02T01:38:01.462Z,4.10
2018-12-02T01:40:30.913Z,3.30
2018-12-02T01:42:59.602Z,3.13
2018-12-02T01:45:28.605Z,3.77
2018-12-02T01:47:58.017Z,3.30
2018-12-02T01:50:27.377Z,3.63
2018-12-02T01:52:57.168Z,3.50
2018-12-02T01:55:26.079Z,3.03
2018-12-02T01:57:55.009Z,3.00
2018-12-02T02:00:27.124Z,2.90
2018-12-02T02:02:56.775Z,3.10
2018-12-02T02:05:26.638Z,3.20
2018-12-02T02:07:55.422Z,3.47
2018-12-02T02:10:26.122Z,3.30
2018-12-02T02:12:54.954Z,3.70
2018-12-02T02:15:23.967Z,2.83
2018-12-02T02:17:53.035Z,2.90
2018-12-02T02:20:24.732Z,2.73
2018-12-02T02:22:53.583Z,2.43
2018-12-02T02:25:24.272Z,2.90
2018-12-02T02:27:56.159Z,2.77
2018-12-02T02:30:25.900Z,2.77
2018-12-02T02:32:55.047Z,3.13
2018-12-02T02:35:23.853Z,2.40
2018-12-02T02:37:54.712Z,2.80
2018-12-02T02:40:24.398Z,3.23
2018-12-02T02:42:53.287Z,2.87
2018-12-02T02:45:22.002Z,3.53
2018-12-02T02:47:50.985Z,3.80
2018-12-02T02:50:20.625Z,3.90
2018-12-02T02:52:50.689Z,4.00
2018-12-02T02:55:19.736Z,4.17
2018-12-02T02:57:48.470Z,3.67
2018-12-02T03:00:19.380Z,4.13
2018-12-02T03:02:48.152Z,3.70
2018-12-02T03:05:17.646Z,3.80
2018-12-02T03:07:46.459Z,3.87
2018-12-02T03:10:18.224Z,4.40
2018-12-02T03:12:50.137Z,4.50
2018-12-02T03:15:19.848Z,4.30
2018-12-02T03:17:49.249Z,4.30
2018-12-02T03:20:19.043Z,4.30
2018-12-02T03:22:50.873Z,4.23
2018-12-02T03:25:22.749Z,4.67
2018-12-02T03:27:52.137Z,4.63
2018-12-02T03:30:24.665Z,3.97
2018-12-02T03:32:53.588Z,4.40
2018-12-02T03:35:25.234Z,4.50
2018-12-02T03:37:54.824Z,4.30
2018-12-02T03:40:24.664Z,3.57
2018-12-02T03:42:53.756Z,3.57
2018-12-02T03:45:23.825Z,3.10
2018-12-02T03:47:53.195Z,3.63
2018-12-02T03:50:22.831Z,3.03
2018-12-02T03:52:51.822Z,3.53
2018-12-02T03:55:20.850Z,3.60
2018-12-02T03:57:49.799Z,3.97
2018-12-02T04:00:23.664Z,4.03
2018-12-02T04:02:53.407Z,4.50
2018-12-02T04:05:25.128Z,4.33
2018-12-02T04:07:54.079Z,3.57
2018-12-02T04:10:22.986Z,4.50
2018-12-02T04:12:52.527Z,4.40
2018-12-02T04:15:22.215Z,3.93
2018-12-02T04:17:51.074Z,3.43
2018-12-02T04:20:20.503Z,3.03
2018-12-02T04:22:50.031Z,3.17
2018-12-02T04:25:20.094Z,2.60
2018-12-02T04:27:49.288Z,2.93
2018-12-02T04:30:19.784Z,2.70
2018-12-02T04:32:50.262Z,2.27
2018-12-02T04:35:20.998Z,2.30
2018-12-02T04:37:49.752Z,2.43
2018-12-02T04:40:18.475Z,2.43
2018-12-02T04:42:47.426Z,2.30
2018-12-02T04:45:18.208Z,2.10
2018-12-02T04:47:47.319Z,2.00
2018-12-02T04:50:24.765Z,2.03
2018-12-02T04:52:53.934Z,2.30
2018-12-02T04:55:23.043Z,2.53
2018-12-02T04:57:52.546Z,2.30
2018-12-02T05:00:21.806Z,2.40
2018-12-02T05:02:52.207Z,2.03
2018-12-02T05:05:21.709Z,2.30
2018-12-02T05:07:50.572Z,2.27
2018-12-02T05:10:20.079Z,2.30
2018-12-02T05:12:49.106Z,2.20
2018-12-02T05:15:18.750Z,2.30
2018-12-02T05:17:48.220Z,2.43
2018-12-02T05:20:19.693Z,1.90
2018-12-02T05:22:48.549Z,2.30
2018-12-02T05:25:18.596Z,2.00
2018-12-02T05:27:46.921Z,2.00
2018-12-02T05:30:21.532Z,1.90
2018-12-02T05:32:52.181Z,2.33
2018-12-02T05:35:20.984Z,1.97
2018-12-02T05:37:49.927Z,2.57
2018-12-02T05:40:21.890Z,2.03
2018-12-02T05:42:51.101Z,2.50
2018-12-02T05:45:20.082Z,2.53
2018-12-02T05:47:49.348Z,2.13
2018-12-02T05:50:19.300Z,2.50
2018-12-02T05:52:51.254Z,2.60
2018-12-02T05:55:21.439Z,2.27
2018-12-02T05:57:50.248Z,2.00
2018-12-02T06:00:20.251Z,2.07
2018-12-02T06:02:49.219Z,1.90
2018-12-02T06:05:18.170Z,1.80
2018-12-02T06:07:46.930Z,1.90
2018-12-02T06:10:16.955Z,1.90
2018-12-02T06:12:45.738Z,1.70
2018-12-02T06:15:16.305Z,1.60
2018-12-02T06:17:45.073Z,2.20
2018-12-02T06:20:18.649Z,1.63
2018-12-02T06:22:48.158Z,1.70
2018-12-02T06:25:17.233Z,1.77
2018-12-02T06:27:46.081Z,2.07
2018-12-02T06:30:24.692Z,1.80
2018-12-02T06:32:59.578Z,1.80
2018-12-02T06:35:28.902Z,1.80
2018-12-02T06:37:58.590Z,1.73
2018-12-02T06:40:28.336Z,2.10
2018-12-02T06:42:57.288Z,1.57
2018-12-02T06:45:26.777Z,1.90
2018-12-02T06:47:55.976Z,1.77
2018-12-02T06:50:26.872Z,2.00
2018-12-02T06:52:56.714Z,2.03
2018-12-02T06:55:34.914Z,2.27
2018-12-02T06:58:18.348Z,2.20
2018-12-02T07:00:52.935Z,1.90
2018-12-02T07:03:29.309Z,2.60
2018-12-02T07:05:58.225Z,2.30
2018-12-02T07:08:27.526Z,2.40
2018-12-02T07:10:56.378Z,1.90
2018-12-02T07:13:25.395Z,1.97
2018-12-02T07:15:54.647Z,2.23
2018-12-02T07:18:26.185Z,1.93
2018-12-02T07:20:56.915Z,2.57
2018-12-02T07:23:28.694Z,1.83
2018-12-02T07:25:57.794Z,1.70
2018-12-02T07:28:26.732Z,1.97
2018-12-02T07:30:55.740Z,2.00
2018-12-02T07:33:24.888Z,1.97
2018-12-02T07:35:53.728Z,1.60
2018-12-02T07:38:33.864Z,1.77
2018-12-02T07:41:03.298Z,1.70
2018-12-02T07:43:32.315Z,1.70
2018-12-02T07:46:01.126Z,1.60
2018-12-02T07:48:30.027Z,1.70
2018-12-02T07:50:58.882Z,1.60
2018-12-02T07:53:28.008Z,2.03
2018-12-02T07:55:57.918Z,1.80
2018-12-02T07:58:26.983Z,2.00
2018-12-02T08:00:56.364Z,1.63
2018-12-02T08:03:26.292Z,1.90
2018-12-02T08:05:55.089Z,1.90
2018-12-02T08:08:24.049Z,1.80
2018-12-02T08:10:53.078Z,1.90
2018-12-02T08:13:21.857Z,2.10
2018-12-02T08:15:50.753Z,1.90
2018-12-02T08:18:19.706Z,2.47
2018-12-02T08:20:48.564Z,1.63
2018-12-02T08:23:17.391Z,2.27
2018-12-02T08:25:46.138Z,2.40
2018-12-02T08:28:15.137Z,2.30
2018-12-02T08:30:44.214Z,2.67
2018-12-02T08:33:13.248Z,2.60
2018-12-02T08:35:42.104Z,2.63
2018-12-02T08:38:11.881Z,2.80
2018-12-02T08:40:40.659Z,2.77
2018-12-02T08:43:09.712Z,2.50
2018-12-02T08:45:38.797Z,2.33
2018-12-02T08:48:07.498Z,2.73
2018-12-02T08:50:36.656Z,2.70
2018-12-02T08:53:05.894Z,2.40
2018-12-02T08:55:34.748Z,2.40
2018-12-02T08:58:03.685Z,2.27
2018-12-02T09:00:32.981Z,2.30
2018-12-02T09:03:03.993Z,2.00
2018-12-02T09:05:32.962Z,1.80
2018-12-02T09:08:02.378Z,2.10
2018-12-02T09:10:32.428Z,1.77
2018-12-02T09:13:04.814Z,2.13
2018-12-02T09:15:33.688Z,2.50
2018-12-02T09:18:02.498Z,2.30
2018-12-02T09:20:36.331Z,2.60
2018-12-02T09:23:05.891Z,2.50
2018-12-02T09:25:34.801Z,2.90
2018-12-02T09:28:04.200Z,2.60
2018-12-02T09:30:34.363Z,3.30
2018-12-02T09:33:03.451Z,3.53
2018-12-02T09:35:32.384Z,3.53
2018-12-02T09:38:01.408Z,3.50
2018-12-02T09:40:30.378Z,3.07
2018-12-02T09:42:59.348Z,3.30
2018-12-02T09:45:29.139Z,3.40
2018-12-02T09:48:01.980Z,3.33
2018-12-02T09:50:30.966Z,3.00
2018-12-02T09:53:00.338Z,3.50
2018-12-02T09:55:32.194Z,3.20
2018-12-02T09:58:01.121Z,2.67
2018-12-02T10:00:34.116Z,3.37
2018-12-02T10:02:59.239Z,2.80
2018-12-02T10:05:28.060Z,2.60
2018-12-02T10:07:56.716Z,2.50
2018-12-02T10:10:25.508Z,2.93
2018-12-02T10:12:59.963Z,2.80
2018-12-02T10:15:28.956Z,2.43
2018-12-02T10:17:57.734Z,2.80
2018-12-02T10:20:26.947Z,2.97
2018-12-02T10:22:56.204Z,2.77
2018-12-02T10:25:25.241Z,3.47
2018-12-02T10:27:54.721Z,3.30
2018-12-02T10:30:24.344Z,3.03
2018-12-02T10:32:54.038Z,2.83
2018-12-02T10:35:22.755Z,2.60
2018-12-02T10:37:52.047Z,2.73
2018-12-02T10:40:22.915Z,2.40
2018-12-02T10:42:52.646Z,2.30
2018-12-02T10:45:22.209Z,2.10
2018-12-02T10:47:54.890Z,2.13
2018-12-02T10:50:33.617Z,2.20
2018-12-02T10:53:06.604Z,2.10
2018-12-02T10:55:41.008Z,1.77
2018-12-02T10:58:11.510Z,2.20
2018-12-02T11:00:45.538Z,2.40
2018-12-02T11:03:14.458Z,2.40
2018-12-02T11:05:43.431Z,2.27
2018-12-02T11:08:12.175Z,2.50
2018-12-02T11:10:41.009Z,2.83
2018-12-02T11:13:09.841Z,2.47
2018-12-02T11:15:39.137Z,2.80
2018-12-02T11:18:09.406Z,2.73
2018-12-02T11:20:38.221Z,3.30
2018-12-02T11:23:07.913Z,2.40
2018-12-02T11:25:37.470Z,2.33
2018-12-02T11:28:07.190Z,2.63
2018-12-02T11:30:36.145Z,2.60
2018-12-02T11:33:05.316Z,2.60
2018-12-02T11:35:34.227Z,2.50
2018-12-02T11:38:03.556Z,2.83
2018-12-02T11:40:32.319Z,2.37
2018-12-02T11:43:01.138Z,2.50
2018-12-02T11:45:29.895Z,2.60
2018-12-02T11:47:58.769Z,2.63
2018-12-02T11:50:27.702Z,2.40
2018-12-02T11:52:56.631Z,2.40
2018-12-02T11:55:25.539Z,2.93
2018-12-02T11:57:54.617Z,2.60
2018-12-02T12:00:24.488Z,2.40
2018-12-02T12:02:54.053Z,2.27
2018-12-02T12:05:22.754Z,2.50
2018-12-02T12:07:51.785Z,2.47
2018-12-02T12:10:26.619Z,3.13
2018-12-02T12:12:59.295Z,2.80
2018-12-02T12:15:28.940Z,3.20
2018-12-02T12:17:58.220Z,3.20
2018-12-02T12:20:30.801Z,3.33
2018-12-02T12:22:59.782Z,3.23
2018-12-02T12:25:29.076Z,3.40
2018-12-02T12:27:58.663Z,3.30
2018-12-02T12:30:30.566Z,2.83
2018-12-02T12:32:59.674Z,3.03
2018-12-02T12:35:28.559Z,2.87
2018-12-02T12:37:57.543Z,3.47
2018-12-02T12:40:28.968Z,3.20
2018-12-02T12:43:34.163Z,3.50
2018-12-02T12:46:03.546Z,3.07
2018-12-02T12:48:32.388Z,3.57
2018-12-02T12:51:01.255Z,2.90
2018-12-02T12:53:29.991Z,3.17
2018-12-02T12:55:58.838Z,3.43
2018-12-02T12:58:27.520Z,3.67
2018-12-02T13:00:56.285Z,3.80
2018-12-02T13:03:25.513Z,3.90
2018-12-02T13:05:54.156Z,4.10
2018-12-02T13:08:23.062Z,4.10
2018-12-02T13:10:51.847Z,3.90
2018-12-02T13:13:21.924Z,4.40
2018-12-02T13:15:50.263Z,3.77
2018-12-02T13:18:19.335Z,4.87
2018-12-02T13:20:54.343Z,4.83
2018-12-02T13:23:23.498Z,4.37
2018-12-02T13:25:52.697Z,3.00
2018-12-02T13:28:21.559Z,3.33
2018-12-02T13:30:50.511Z,3.73
2018-12-02T13:33:19.354Z,3.23
2018-12-02T13:35:48.417Z,3.40
2018-12-02T13:38:17.361Z,3.53
2018-12-02T13:40:46.179Z,3.17
2018-12-02T13:43:18.247Z,3.70
2018-12-02T13:45:47.624Z,3.57
2018-12-02T13:48:16.636Z,3.83
2018-12-02T13:50:45.875Z,2.97
2018-12-02T13:53:15.088Z,3.20
2018-12-02T13:55:44.330Z,2.70
2018-12-02T13:58:13.116Z,1.90
2018-12-02T14:00:43.082Z,2.37
2018-12-02T14:03:13.320Z,2.37
2018-12-02T14:05:45.077Z,2.20
2018-12-02T14:08:14.038Z,1.90
2018-12-02T14:10:43.380Z,1.73
2018-12-02T14:13:24.371Z,2.00
2018-12-02T14:16:02.008Z,2.07
2018-12-02T14:18:36.130Z,2.07
2018-12-02T14:21:05.210Z,2.10
2018-12-02T14:23:33.972Z,1.90
2018-12-02T14:26:05.923Z,2.17
2018-12-02T14:28:42.301Z,2.20
2018-12-02T14:31:11.125Z,2.13
2018-12-02T14:33:39.855Z,1.80
2018-12-02T14:36:08.756Z,2.10
2018-12-02T14:38:37.531Z,2.60
2018-12-02T14:41:07.096Z,2.00
2018-12-02T14:43:36.142Z,2.27
2018-12-02T14:46:05.010Z,2.17
2018-12-02T14:48:33.967Z,2.47
2018-12-02T14:51:02.845Z,1.87
2018-12-02T14:53:31.832Z,2.20
2018-12-02T14:56:01.095Z,2.57
2018-12-02T14:58:30.067Z,2.40
2018-12-02T15:00:58.818Z,2.30
2018-12-02T15:03:27.704Z,2.57
2018-12-02T15:05:56.842Z,2.97
2018-12-02T15:08:25.572Z,2.67
2018-12-02T15:10:54.405Z,2.50
2018-12-02T15:13:23.239Z,2.83
2018-12-02T15:15:51.933Z,2.80
2018-12-02T15:18:21.015Z,2.70
2018-12-02T15:20:49.761Z,2.27
2018-12-02T15:23:19.134Z,2.90
2018-12-02T15:25:48.085Z,3.00
2018-12-02T15:28:16.905Z,3.00
2018-12-02T15:31:49.105Z,3.13
2018-12-02T15:34:18.106Z,3.40
2018-12-02T15:36:46.945Z,3.33
2018-12-02T15:39:16.029Z,3.30
2018-12-02T15:41:45.163Z,3.33
2018-12-02T15:44:13.891Z,3.27
2018-12-02T15:46:42.789Z,2.67
2018-12-02T15:49:11.544Z,3.00
2018-12-02T15:51:40.226Z,3.10
2018-12-02T15:54:09.120Z,3.27
2018-12-02T15:56:38.086Z,3.30
2018-12-02T15:59:08.643Z,3.33
2018-12-02T16:01:38.320Z,3.20
2018-12-02T16:04:07.152Z,2.90
2018-12-02T16:06:36.247Z,2.93
2018-12-02T16:09:07.722Z,3.40
2018-12-02T16:11:36.686Z,3.17
2018-12-02T16:14:06.103Z,3.37
2018-12-02T16:16:34.828Z,2.70
2018-12-02T16:19:03.856Z,2.97
2018-12-02T16:21:33.202Z,2.80
2018-12-02T16:24:01.931Z,3.00
2018-12-02T16:26:30.923Z,2.90
2018-12-02T16:28:59.599Z,3.37
2018-12-02T16:31:28.779Z,3.10
2018-12-02T16:33:57.639Z,3.00
2018-12-02T16:36:26.496Z,3.40
2018-12-02T16:38:55.862Z,2.93
2018-12-02T16:41:25.254Z,3.03
2018-12-02T16:43:54.226Z,2.23
2018-12-02T16:46:22.907Z,2.67
2018-12-02T16:48:52.248Z,2.60
2018-12-02T16:51:21.383Z,2.80
2018-12-02T16:53:50.133Z,3.23
2018-12-02T16:56:19.157Z,3.10
2018-12-02T16:58:56.625Z,3.43
2018-12-02T17:01:26.512Z,3.30
2018-12-02T17:03:59.021Z,3.10
2018-12-02T17:06:28.325Z,3.07
2018-12-02T17:08:58.741Z,2.87
2018-12-02T17:11:27.843Z,3.10
2018-12-02T17:13:56.675Z,3.47
2018-12-02T17:16:25.497Z,3.53
2018-12-02T17:18:54.480Z,3.40
2018-12-02T17:21:23.521Z,3.63
2018-12-02T17:23:52.466Z,3.97
2018-12-02T17:26:21.824Z,3.90
2018-12-02T17:28:51.117Z,3.90
2018-12-02T17:31:23.162Z,3.73
2018-12-02T17:33:52.481Z,4.47
2018-12-02T17:36:27.316Z,4.93
2018-12-02T17:39:04.944Z,4.53
2018-12-02T17:41:36.713Z,4.97
2018-12-02T17:44:07.635Z,4.90
2018-12-02T17:46:42.339Z,5.03
2018-12-02T17:49:14.732Z,5.23
2018-12-02T17:51:43.989Z,4.80
2018-12-02T17:54:12.892Z,5.07
2018-12-02T17:56:42.190Z,4.70
2018-12-02T17:59:11.257Z,3.97
2018-12-02T18:01:40.154Z,4.63
2018-12-02T18:04:09.215Z,4.67
2018-12-02T18:06:38.373Z,4.27
2018-12-02T18:09:10.663Z,4.60
2018-12-02T18:11:39.569Z,4.87
2018-12-02T18:14:08.614Z,4.37
2018-12-02T18:16:37.620Z,4.47
2018-12-02T18:19:06.949Z,5.73
2018-12-02T18:21:36.373Z,4.80
2018-12-02T18:24:06.010Z,5.43
2018-12-02T18:26:34.802Z,5.30
2018-12-02T18:29:04.314Z,5.20
2018-12-02T18:31:33.625Z,5.53
2018-12-02T18:34:02.742Z,6.40
2018-12-02T18:36:33.940Z,5.27
2018-12-02T18:39:04.334Z,5.47
2018-12-02T18:41:37.361Z,5.43
2018-12-02T18:44:08.932Z,6.27
2018-12-02T18:46:38.195Z,6.13
2018-12-02T18:49:07.464Z,6.03
2018-12-02T18:51:36.690Z,6.03
2018-12-02T18:54:06.595Z,6.30
2018-12-02T18:56:35.706Z,6.87
2018-12-02T18:59:04.809Z,6.50
2018-12-02T19:01:35.114Z,6.93
2018-12-02T19:04:04.766Z,6.90
2018-12-02T19:06:33.969Z,8.00
2018-12-02T19:09:03.401Z,7.07
2018-12-02T19:11:33.044Z,6.80
2018-12-02T19:14:02.399Z,6.50
2018-12-02T19:16:32.272Z,6.90
2018-12-02T19:19:01.418Z,6.67
2018-12-02T19:21:31.632Z,7.43
2018-12-02T19:24:01.563Z,8.43
2018-12-02T19:26:31.109Z,7.63
2018-12-02T19:29:00.614Z,7.20
2018-12-02T19:31:30.159Z,7.30
2018-12-02T19:33:59.583Z,8.10
2018-12-02T19:36:33.139Z,7.17
2018-12-02T19:39:02.769Z,7.00
2018-12-02T19:41:31.986Z,7.23
2018-12-02T19:44:01.312Z,7.67
2018-12-02T19:46:30.868Z,7.90
2018-12-02T19:49:00.414Z,8.03
2018-12-02T19:51:29.666Z,8.27
2018-12-02T19:53:59.401Z,8.80
2018-12-02T19:56:28.652Z,8.07
2018-12-02T19:58:57.869Z,7.70
2018-12-02T20:01:27.438Z,9.17
2018-12-02T20:03:57.092Z,8.43
2018-12-02T20:06:26.703Z,7.67
2018-12-02T20:08:56.309Z,7.53
2018-12-02T20:11:25.750Z,8.27
2018-12-02T20:13:55.414Z,7.53
2018-12-02T20:16:24.908Z,7.30
2018-12-02T20:18:54.169Z,7.23
2018-12-02T20:21:24.525Z,8.20
2018-12-02T20:23:59.087Z,8.13
2018-12-02T20:26:28.727Z,8.20
2018-12-02T20:28:59.293Z,7.70
2018-12-02T20:31:30.031Z,7.90
2018-12-02T20:33:59.566Z,8.30
2018-12-02T20:36:29.748Z,8.57
2018-12-02T20:38:59.248Z,8.73
2018-12-02T20:41:28.849Z,8.20
2018-12-02T20:43:58.417Z,8.67
2018-12-02T20:46:27.890Z,8.07
2018-12-02T20:48:57.360Z,9.27
2018-12-02T20:51:26.591Z,8.87
2018-12-02T20:53:55.866Z,8.50
2018-12-02T20:56:25.395Z,8.00
2018-12-02T20:58:54.467Z,7.13
2018-12-02T21:01:23.891Z,8.97
2018-12-02T21:03:53.429Z,8.47
2018-12-02T21:06:23.053Z,7.70
2018-12-02T21:08:52.420Z,9.60
2018-12-02T21:11:21.706Z,9.67
2018-12-02T21:13:51.129Z,9.20
2018-12-02T21:16:20.300Z,6.90
2018-12-02T21:18:50.565Z,9.60
2018-12-02T21:21:19.563Z,9.50
2018-12-02T21:23:48.787Z,9.87
2018-12-02T21:26:18.142Z,9.77
2018-12-02T21:28:46.969Z,9.77
2018-12-02T21:31:16.278Z,10.90
2018-12-02T21:33:45.808Z,9.63
2018-12-02T21:36:14.871Z,9.10
2018-12-02T21:38:44.294Z,9.87
2018-12-02T21:41:13.285Z,9.33
2018-12-02T21:43:42.420Z,7.83
2018-12-02T21:46:11.066Z,8.60
2018-12-02T21:48:40.156Z,8.50
2018-12-02T21:51:09.217Z,8.33
2018-12-02T21:53:39.005Z,8.50
2018-12-02T21:56:08.188Z,9.20
2018-12-02T21:58:37.276Z,9.27
2018-12-02T22:01:11.480Z,8.37
2018-12-02T22:03:40.360Z,8.03
2018-12-02T22:06:09.403Z,9.00
2018-12-02T22:08:38.649Z,9.87
2018-12-02T22:11:07.895Z,9.33
2018-12-02T22:13:37.152Z,9.00
2018-12-02T22:16:06.191Z,9.87
2018-12-02T22:18:35.196Z,8.00
2018-12-02T22:21:03.928Z,9.00
2018-12-02T22:23:32.856Z,9.37
2018-12-02T22:26:01.968Z,9.17
2018-12-02T22:28:30.935Z,8.53
2018-12-02T22:30:59.914Z,8.90
2018-12-02T22:33:28.646Z,9.50
2018-12-02T22:35:57.439Z,8.77
2018-12-02T22:38:26.516Z,7.83
2018-12-02T22:40:55.224Z,8.23
2018-12-02T22:43:23.971Z,7.47
2018-12-02T22:45:53.287Z,7.27
2018-12-02T22:48:21.989Z,7.87
2018-12-02T22:50:50.786Z,7.63
2018-12-02T22:53:19.756Z,7.10
2018-12-02T22:55:48.648Z,6.67
2018-12-02T22:58:17.540Z,6.13
2018-12-02T23:00:51.861Z,6.83
2018-12-02T23:03:21.013Z,5.97
2018-12-02T23:05:49.873Z,5.53
2018-12-02T23:08:18.624Z,6.07
2018-12-02T23:10:47.725Z,6.20
2018-12-02T23:13:16.467Z,6.00
2018-12-02T23:15:46.308Z,5.60
2018-12-02T23:18:15.165Z,5.93
2018-12-02T23:20:44.236Z,6.77
2018-12-02T23:23:12.922Z,6.17
2018-12-02T23:26:17.984Z,7.03
2018-12-02T23:29:27.163Z,6.30
2018-12-02T23:32:36.484Z,7.00
2018-12-02T23:35:07.018Z,6.23
2018-12-02T23:37:37.095Z,6.37
2018-12-02T23:40:27.629Z,6.27
2018-12-02T23:43:36.857Z,6.90
2018-12-02T23:46:06.966Z,6.60
2018-12-02T23:48:36.983Z,6.37
2018-12-02T23:51:06.972Z,6.80
2018-12-02T23:53:37.453Z,6.70
2018-12-02T23:59:33.492Z,5.43
